createdAt,value
2024-05-09T00:01:56.399Z,0.05
2024-05-09T00:04:56.571Z,0.05
2024-05-09T00:07:56.396Z,0.1
2024-05-09T00:10:56.574Z,0.05
2024-05-09T00:13:56.448Z,0.05
2024-05-09T00:16:56.359Z,0.15
2024-05-09T00:19:56.370Z,0
2024-05-09T00:22:56.537Z,0
2024-05-09T00:25:56.454Z,0.1
2024-05-09T00:28:56.518Z,0.3
2024-05-09T00:31:56.576Z,0.05
2024-05-09T00:34:56.436Z,0
2024-05-09T00:37:56.488Z,0.1
2024-05-09T00:40:56.353Z,0.1
2024-05-09T00:43:56.570Z,0.05
2024-05-09T00:46:56.487Z,0
2024-05-09T00:49:56.453Z,0.25
2024-05-09T00:52:56.414Z,0.1
2024-05-09T00:55:56.541Z,0.05
2024-05-09T00:58:56.425Z,0.35
2024-05-09T01:01:56.739Z,0.05
2024-05-09T01:04:56.900Z,0.1
2024-05-09T01:07:56.435Z,0
2024-05-09T01:10:56.505Z,0
2024-05-09T01:13:56.513Z,0.25
2024-05-09T01:16:56.504Z,0
2024-05-09T01:19:56.413Z,0.05
2024-05-09T01:22:56.598Z,0
2024-05-09T01:25:56.466Z,0
2024-05-09T01:28:56.543Z,0.2
2024-05-09T01:31:56.602Z,0.2
2024-05-09T01:34:56.534Z,0.25
2024-05-09T01:37:56.482Z,0.15
2024-05-09T01:40:56.642Z,0
2024-05-09T01:43:56.455Z,0.15
2024-05-09T01:46:56.507Z,0.2
2024-05-09T01:49:56.446Z,0.1
2024-05-09T01:52:56.579Z,0.15
2024-05-09T01:55:57.460Z,0.1
2024-05-09T01:58:56.458Z,0.2
2024-05-09T02:01:59.453Z,0
2024-05-09T02:04:56.627Z,0.1
2024-05-09T02:07:56.544Z,0.1
2024-05-09T02:10:56.695Z,0.1
2024-05-09T02:13:56.466Z,0.1
2024-05-09T02:16:56.457Z,0.15
2024-05-09T02:19:56.583Z,0.15
2024-05-09T02:22:56.453Z,0.3
2024-05-09T02:25:56.503Z,0.15
2024-05-09T02:28:56.426Z,0.15
2024-05-09T02:31:56.742Z,0
2024-05-09T02:34:56.619Z,0.2
2024-05-09T02:37:56.477Z,0.15
2024-05-09T02:40:56.486Z,0.15
2024-05-09T02:43:56.491Z,0.05
2024-05-09T02:46:56.604Z,0
2024-05-09T02:49:56.517Z,0
2024-05-09T02:52:56.563Z,0
2024-05-09T02:55:56.630Z,0
2024-05-09T02:58:56.550Z,0
2024-05-09T03:01:56.688Z,0.2
2024-05-09T03:04:56.589Z,0.15
2024-05-09T03:07:56.628Z,0.1
2024-05-09T03:10:56.511Z,0.1
2024-05-09T03:13:56.598Z,0
2024-05-09T03:16:56.515Z,0.15
2024-05-09T03:19:56.466Z,0.2
2024-05-09T03:22:58.174Z,0.15
2024-05-09T03:25:56.552Z,0.05
2024-05-09T03:28:56.554Z,0.1
2024-05-09T03:31:56.630Z,0
2024-05-09T03:34:56.542Z,0.1
2024-05-09T03:37:56.566Z,0.05
2024-05-09T03:40:56.492Z,0.05
2024-05-09T03:43:56.539Z,0
2024-05-09T03:46:56.546Z,0
2024-05-09T03:49:56.500Z,0.1
2024-05-09T03:52:56.566Z,0
2024-05-09T03:55:56.514Z,0
2024-05-09T03:58:56.545Z,0
2024-05-09T04:01:56.810Z,0
2024-05-09T04:04:56.599Z,0
2024-05-09T04:07:56.577Z,0.2
2024-05-09T04:10:56.639Z,0.4
2024-05-09T04:13:56.514Z,0.45
2024-05-09T04:16:56.554Z,0.75
2024-05-09T04:19:56.830Z,0.85
2024-05-09T04:22:56.576Z,0.65
2024-05-09T04:25:56.517Z,0.45
2024-05-09T04:28:56.602Z,0.75
2024-05-09T04:31:56.655Z,0.75
2024-05-09T04:34:56.626Z,0.75
2024-05-09T04:37:56.614Z,0.45
2024-05-09T04:40:56.593Z,0.6
2024-05-09T04:43:56.687Z,0.8
2024-05-09T04:46:56.583Z,0.9
2024-05-09T04:49:56.678Z,0.45
2024-05-09T04:52:56.641Z,0.95
2024-05-09T04:55:56.622Z,0.85
2024-05-09T04:58:56.625Z,0.6
2024-05-09T05:01:56.917Z,0.55
2024-05-09T05:04:56.847Z,0.35
2024-05-09T05:07:56.645Z,0.3
2024-05-09T05:10:56.838Z,0.3
2024-05-09T05:13:56.777Z,0.3
2024-05-09T05:16:56.613Z,0.15
2024-05-09T05:19:56.817Z,0.05
2024-05-09T05:22:56.610Z,0.25
2024-05-09T05:25:57.054Z,0.05
2024-05-09T05:28:56.713Z,0.15
2024-05-09T05:31:57.148Z,0.1
2024-05-09T05:34:56.670Z,0.15
2024-05-09T05:37:56.809Z,0.05
2024-05-09T05:40:56.972Z,0
2024-05-09T05:43:56.670Z,0.05
2024-05-09T05:46:56.649Z,0.1
2024-05-09T05:49:56.755Z,0.15
2024-05-09T05:52:56.629Z,0.45
2024-05-09T05:55:56.674Z,0.55
2024-05-09T05:58:56.628Z,0.5
2024-05-09T06:01:56.727Z,0.85
2024-05-09T06:04:56.888Z,0.45
2024-05-09T06:07:56.890Z,0.45
2024-05-09T06:10:56.918Z,0.45
2024-05-09T06:13:56.664Z,0.4
2024-05-09T06:16:59.266Z,0.65
2024-05-09T06:19:56.709Z,0.75
2024-05-09T06:22:56.685Z,0.45
2024-05-09T06:25:56.708Z,0.5
2024-05-09T06:28:56.720Z,0.55
2024-05-09T06:32:00.197Z,0.35
2024-05-09T06:34:56.715Z,0.25
2024-05-09T06:37:56.734Z,0.4
2024-05-09T06:40:56.734Z,0.55
2024-05-09T06:43:56.695Z,0.3
2024-05-09T06:46:59.884Z,0.4
2024-05-09T06:49:56.698Z,0.65
2024-05-09T06:52:56.701Z,0.8
2024-05-09T06:55:56.757Z,1
2024-05-09T06:58:56.711Z,0.9
2024-05-09T07:01:56.709Z,0.8
2024-05-09T07:04:57.172Z,1
2024-05-09T07:07:56.760Z,1.15
2024-05-09T07:10:57.014Z,0.5
2024-05-09T07:13:56.898Z,1.35
2024-05-09T07:16:56.876Z,1
2024-05-09T07:19:56.866Z,0.9
2024-05-09T07:22:56.828Z,1.1
2024-05-09T07:25:56.684Z,0.6
2024-05-09T07:28:56.772Z,2.45
2024-05-09T07:31:56.835Z,1.25
2024-05-09T07:34:56.747Z,0.9
2024-05-09T07:37:56.818Z,1.25
2024-05-09T07:40:56.751Z,1.55
2024-05-09T07:43:56.877Z,1.15
2024-05-09T07:50:54.863Z,0.8
2024-05-09T07:55:58.084Z,0.85
2024-05-09T07:58:57.090Z,1.25
2024-05-09T08:01:56.953Z,0.85
2024-05-09T08:04:56.997Z,1.2
2024-05-09T08:07:56.752Z,1.4
2024-05-09T08:10:56.836Z,1.45
2024-05-09T08:13:56.703Z,1.15
2024-05-09T08:16:56.827Z,1.5
2024-05-09T08:19:56.704Z,0.85
2024-05-09T08:22:56.789Z,2
2024-05-09T08:25:56.861Z,1.25
2024-05-09T08:28:56.725Z,1.75
2024-05-09T08:31:57.009Z,1.45
2024-05-09T08:34:57.093Z,1.4
2024-05-09T08:37:57.233Z,1.05
2024-05-09T08:40:56.932Z,1.35
2024-05-09T08:43:56.734Z,1.85
2024-05-09T08:46:56.758Z,0.8
2024-05-09T08:49:56.921Z,1.85
2024-05-09T08:52:56.827Z,1.15
2024-05-09T08:55:56.798Z,1.2
2024-05-09T08:58:56.760Z,0.9
2024-05-09T09:01:56.975Z,2.15
2024-05-09T09:04:57.031Z,1.7
2024-05-09T09:07:56.774Z,1.3
2024-05-09T09:10:56.865Z,2.2
2024-05-09T09:13:56.774Z,2.05
2024-05-09T09:16:56.779Z,1.8
2024-05-09T09:19:56.939Z,2.45
2024-05-09T09:22:56.778Z,1.85
2024-05-09T09:25:56.794Z,1.35
2024-05-09T09:28:56.803Z,1.4
2024-05-09T09:31:56.831Z,1.65
2024-05-09T09:34:56.961Z,0.9
2024-05-09T09:37:56.828Z,0.9
2024-05-09T09:40:56.830Z,1.1
2024-05-09T09:43:56.802Z,0.8
2024-05-09T09:46:56.991Z,1.45
2024-05-09T09:49:56.823Z,1.05
2024-05-09T09:52:56.824Z,0.95
2024-05-09T09:55:56.826Z,1.05
2024-05-09T09:58:56.817Z,2
2024-05-09T10:01:57.004Z,1.35
2024-05-09T10:04:57.252Z,2.4
2024-05-09T10:07:56.853Z,2.15
2024-05-09T10:10:57.056Z,1.15
2024-05-09T10:13:56.780Z,2.25
2024-05-09T10:16:56.860Z,1.3
2024-05-09T10:19:56.948Z,1.35
2024-05-09T10:22:56.849Z,1.45
2024-05-09T10:25:56.864Z,2.85
2024-05-09T10:28:56.810Z,2.1
2024-05-09T10:31:56.883Z,1.85
2024-05-09T10:34:56.982Z,1.75
2024-05-09T10:37:56.838Z,0.95
2024-05-09T10:40:56.882Z,1.45
2024-05-09T10:43:56.835Z,1.5
2024-05-09T10:46:57.060Z,1.85
2024-05-09T10:49:57.053Z,1.4
2024-05-09T10:52:56.930Z,1.85
2024-05-09T10:55:56.867Z,1.45
2024-05-09T10:58:56.896Z,1.65
2024-05-09T11:01:56.995Z,1.5
2024-05-09T11:04:57.158Z,1.25
2024-05-09T11:07:56.935Z,2.05
2024-05-09T11:10:57.033Z,2
2024-05-09T11:13:56.886Z,1.55
2024-05-09T11:16:56.899Z,1.7
2024-05-09T11:19:56.985Z,1.4
2024-05-09T11:22:56.904Z,2.05
2024-05-09T11:25:56.891Z,1.1
2024-05-09T11:28:56.954Z,2.4
2024-05-09T11:31:57.011Z,1.15
2024-05-09T11:34:56.901Z,1.65
2024-05-09T11:37:56.938Z,1.3
2024-05-09T11:40:56.954Z,1.35
2024-05-09T11:43:56.923Z,1.35
2024-05-09T11:46:56.916Z,1.05
2024-05-09T11:49:57.171Z,1.3
2024-05-09T11:52:56.912Z,2.1
2024-05-09T11:55:56.930Z,1.45
2024-05-09T11:58:56.918Z,1.55
2024-05-09T12:01:57.030Z,1.6
2024-05-09T12:04:57.096Z,1.8
2024-05-09T12:07:56.914Z,1.95
2024-05-09T12:10:57.790Z,1.45
2024-05-09T12:13:56.939Z,1.25
2024-05-09T12:16:57.072Z,1.1
2024-05-09T12:19:56.996Z,1.55
2024-05-09T12:22:56.973Z,0.75
2024-05-09T12:25:56.925Z,2.15
2024-05-09T12:28:56.962Z,1.9
2024-05-09T12:31:57.117Z,1.6
2024-05-09T12:34:56.977Z,2
2024-05-09T12:37:57.016Z,1.25
2024-05-09T12:40:57.354Z,1.4
2024-05-09T12:43:56.985Z,1.15
2024-05-09T12:46:57.009Z,1.45
2024-05-09T12:49:57.078Z,1.1
2024-05-09T12:52:56.982Z,0.85
2024-05-09T12:56:02.957Z,0.5
2024-05-09T12:58:57.020Z,1.75
2024-05-09T13:02:01.169Z,1.35
2024-05-09T13:04:57.187Z,1.8
2024-05-09T13:07:57.261Z,1.5
2024-05-09T13:10:57.255Z,2.05
2024-05-09T13:13:56.996Z,1.3
2024-05-09T13:16:57.196Z,1.7
2024-05-09T13:19:56.998Z,2.05
2024-05-09T13:22:57.070Z,2.7
2024-05-09T13:25:57.014Z,1
2024-05-09T13:28:57.015Z,1.1
2024-05-09T13:31:57.044Z,1.4
2024-05-09T13:34:57.033Z,2.15
2024-05-09T13:37:57.112Z,1.1
2024-05-09T13:40:57.091Z,0.8
2024-05-09T13:43:57.034Z,1.3
2024-05-09T13:46:57.114Z,1.45
2024-05-09T13:49:57.030Z,1.8
2024-05-09T13:52:57.065Z,1.2
2024-05-09T13:55:59.478Z,1.05
2024-05-09T13:58:57.031Z,1.35
2024-05-09T14:01:57.195Z,1.75
2024-05-09T14:04:57.505Z,1.95
2024-05-09T14:07:57.084Z,2.2
2024-05-09T14:10:57.135Z,1.75
2024-05-09T14:13:57.101Z,0.75
2024-05-09T14:16:57.227Z,1.45
2024-05-09T14:19:57.130Z,1.25
2024-05-09T14:22:57.088Z,2.05
2024-05-09T14:25:57.226Z,0.95
2024-05-09T14:28:57.080Z,1.4
2024-05-09T14:31:57.074Z,1.65
2024-05-09T14:34:57.164Z,1.55
2024-05-09T14:37:57.073Z,1.3
2024-05-09T14:40:57.241Z,1.6
2024-05-09T14:43:57.129Z,1.6
2024-05-09T14:46:57.225Z,1.25
2024-05-09T14:49:57.150Z,0.5
2024-05-09T14:52:57.115Z,0.7
2024-05-09T14:55:57.289Z,1.5
2024-05-09T14:58:57.149Z,1.9
2024-05-09T15:01:57.497Z,0.9
2024-05-09T15:04:57.268Z,1.95
2024-05-09T15:07:57.093Z,1.85
2024-05-09T15:10:57.475Z,0.6
2024-05-09T15:13:57.103Z,0.75
2024-05-09T15:16:57.170Z,0.9
2024-05-09T15:19:57.425Z,1.2
2024-05-09T15:22:57.115Z,0.8
2024-05-09T15:25:57.290Z,1.6
2024-05-09T15:28:57.248Z,1.9
2024-05-09T15:31:57.242Z,1.5
2024-05-09T15:34:57.127Z,0.55
2024-05-09T15:37:57.177Z,1.3
2024-05-09T15:40:57.240Z,1
2024-05-09T15:43:57.183Z,0.65
2024-05-09T15:46:57.161Z,1.2
2024-05-09T15:49:57.345Z,1.2
2024-05-09T15:52:57.250Z,1.7
2024-05-09T15:55:57.182Z,1.65
2024-05-09T15:58:57.177Z,1.3
2024-05-09T16:01:57.354Z,1.35
2024-05-09T16:04:57.334Z,1.8
2024-05-09T16:07:57.206Z,1.45
2024-05-09T16:10:57.860Z,0.95
2024-05-09T16:13:57.205Z,0.9
2024-05-09T16:16:57.338Z,1.05
2024-05-09T16:19:57.178Z,1.2
2024-05-09T16:22:57.182Z,2.3
2024-05-09T16:25:57.231Z,1.3
2024-05-09T16:28:57.200Z,1
2024-05-09T16:31:57.177Z,0.75
2024-05-09T16:34:57.323Z,0.55
2024-05-09T16:37:57.332Z,0.9
2024-05-09T16:40:57.289Z,1.1
2024-05-09T16:43:57.268Z,0.75
2024-05-09T16:46:57.249Z,1.05
2024-05-09T16:49:57.254Z,0.45
2024-05-09T16:52:57.208Z,1.2
2024-05-09T16:55:57.232Z,0.95
2024-05-09T16:58:57.248Z,0.6
2024-05-09T17:01:57.447Z,0.8
2024-05-09T17:04:57.615Z,0.5
2024-05-09T17:07:57.243Z,0.45
2024-05-09T17:10:57.389Z,0.35
2024-05-09T17:13:57.312Z,0.35
2024-05-09T17:16:57.418Z,0.55
2024-05-09T17:19:57.245Z,0.55
2024-05-09T17:22:57.211Z,0.65
2024-05-09T17:25:57.236Z,0.35
2024-05-09T17:28:57.338Z,0.95
2024-05-09T17:31:57.272Z,0.85
2024-05-09T17:34:57.393Z,0.6
2024-05-09T17:37:57.285Z,0.2
2024-05-09T17:40:57.682Z,0.2
2024-05-09T17:43:57.281Z,0.7
2024-05-09T17:46:57.349Z,0.35
2024-05-09T17:49:57.543Z,0.25
2024-05-09T17:52:57.275Z,0.55
2024-05-09T17:55:57.284Z,0.35
2024-05-09T17:58:57.269Z,0.25
2024-05-09T18:01:57.386Z,0.35
2024-05-09T18:04:57.562Z,0.5
2024-05-09T18:07:57.362Z,0.25
2024-05-09T18:10:57.399Z,0.25
2024-05-09T18:13:57.313Z,0.2
2024-05-09T18:16:57.348Z,0.3
2024-05-09T18:19:57.427Z,0.2
2024-05-09T18:22:57.349Z,0.15
2024-05-09T18:25:57.314Z,0.25
2024-05-09T18:28:57.325Z,0.2
2024-05-09T18:31:57.332Z,0.2
2024-05-09T18:34:57.383Z,0.3
2024-05-09T18:37:57.345Z,0.3
2024-05-09T18:40:57.775Z,0.25
2024-05-09T18:43:57.584Z,0.2
2024-05-09T18:46:57.363Z,0.1
2024-05-09T18:49:57.387Z,0.2
2024-05-09T18:52:57.369Z,0.25
2024-05-09T18:55:57.385Z,0.25
2024-05-09T18:58:57.362Z,0.3
2024-05-09T19:01:57.555Z,0.25
2024-05-09T19:04:57.656Z,0.25
2024-05-09T19:07:57.668Z,0.2
2024-05-09T19:10:57.800Z,0.2
2024-05-09T19:13:57.344Z,0.35
2024-05-09T19:16:57.409Z,0.2
2024-05-09T19:19:57.488Z,0.3
2024-05-09T19:22:57.357Z,0.25
2024-05-09T19:25:57.342Z,0.35
2024-05-09T19:28:57.371Z,0.35
2024-05-09T19:31:57.498Z,0.3
2024-05-09T19:34:57.385Z,0.25
2024-05-09T19:37:57.466Z,0.2
2024-05-09T19:40:57.622Z,0.35
2024-05-09T19:43:57.420Z,0.2
2024-05-09T19:46:57.440Z,0.1
2024-05-09T19:49:57.498Z,0.2
2024-05-09T19:52:57.419Z,0.3
2024-05-09T19:55:57.410Z,0.25
2024-05-09T19:58:57.432Z,0.3
2024-05-09T20:01:57.663Z,0.35
2024-05-09T20:04:57.693Z,0.3
2024-05-09T20:07:57.550Z,0.15
2024-05-09T20:10:57.450Z,0.2
2024-05-09T20:13:57.436Z,0.2
2024-05-09T20:16:57.422Z,0.15
2024-05-09T20:19:57.735Z,0.25
2024-05-09T20:22:57.431Z,0.25
2024-05-09T20:25:57.398Z,0.25
2024-05-09T20:28:57.471Z,0.2
2024-05-09T20:31:57.471Z,0.1
2024-05-09T20:34:57.441Z,0.35
2024-05-09T20:37:57.426Z,0.15
2024-05-09T20:40:57.712Z,0.15
2024-05-09T20:43:57.439Z,0.1
2024-05-09T20:46:57.456Z,0.1
2024-05-09T20:49:57.570Z,0.15
2024-05-09T20:52:57.436Z,0.25
2024-05-09T20:55:57.464Z,0.25
2024-05-09T20:58:57.465Z,0.15
2024-05-09T21:01:57.595Z,0.2
2024-05-09T21:04:57.647Z,0.1
2024-05-09T21:07:57.467Z,0.25
2024-05-09T21:10:57.623Z,0.15
2024-05-09T21:13:57.427Z,0.2
2024-05-09T21:16:57.610Z,0.25
2024-05-09T21:19:57.458Z,0.25
2024-05-09T21:22:57.480Z,0.2
2024-05-09T21:25:57.467Z,0.3
2024-05-09T21:28:57.453Z,0.3
2024-05-09T21:31:57.558Z,0.3
2024-05-09T21:34:57.600Z,0.25
2024-05-09T21:37:57.464Z,0.15
2024-05-09T21:40:57.933Z,0.1
2024-05-09T21:43:57.466Z,0.2
2024-05-09T21:46:57.587Z,0.1
2024-05-09T21:49:57.508Z,0.1
2024-05-09T21:52:57.558Z,0.2
2024-05-09T21:55:57.503Z,0.35
2024-05-09T21:58:57.500Z,0.15
2024-05-09T22:01:58.033Z,0.15
2024-05-09T22:04:57.652Z,0
2024-05-09T22:07:57.585Z,0.15
2024-05-09T22:10:57.836Z,0.2
2024-05-09T22:13:57.513Z,0.2
2024-05-09T22:16:57.781Z,0.15
2024-05-09T22:19:57.488Z,0.1
2024-05-09T22:22:57.506Z,0
2024-05-09T22:25:57.484Z,0.1
2024-05-09T22:28:57.554Z,0.15
2024-05-09T22:31:57.495Z,0.15
2024-05-09T22:34:57.693Z,0.1
2024-05-09T22:37:57.499Z,0
2024-05-09T22:40:57.576Z,0.1
2024-05-09T22:43:57.553Z,0.15
2024-05-09T22:46:57.642Z,0.15
2024-05-09T22:49:57.543Z,0.05
2024-05-09T22:52:57.501Z,0.25
2024-05-09T22:55:57.562Z,0.2
2024-05-09T22:58:57.574Z,0
2024-05-09T23:01:57.781Z,0.1
2024-05-09T23:04:57.763Z,0.15
2024-05-09T23:07:57.572Z,0
2024-05-09T23:10:57.744Z,0
2024-05-09T23:13:57.572Z,0
2024-05-09T23:16:57.667Z,0
2024-05-09T23:19:57.585Z,0
2024-05-09T23:22:57.576Z,0
2024-05-09T23:25:57.574Z,0.05
2024-05-09T23:28:57.573Z,0
2024-05-09T23:31:57.584Z,0.2
2024-05-09T23:34:57.932Z,0
2024-05-09T23:37:57.540Z,0.1
2024-05-09T23:40:57.892Z,0.25
2024-05-09T23:43:57.564Z,0.35
2024-05-09T23:46:57.628Z,0.35
2024-05-09T23:49:57.561Z,0.3
2024-05-09T23:52:57.642Z,0.35
2024-05-09T23:55:57.620Z,0.15
2024-05-09T23:58:57.578Z,0.15
